Time;durP1;ratioP1;P1;durP2;ratioP2;P2;SDS_P1;SDS_P2;PMS_P1;PMS_P2;Temp;Humidity;BMP_temperature;BMP_pressure;BME280_temperature;BME280_humidity;BME280_pressure;Samples;Min_cycle;Max_cycle;Signal;HPM_P1;HPM_P2
2023/10/25 00:02:03;;;;;;;0.08;0.08;;;;;;;14.54;100.00;97712.13;5093799;28;20023;-48
2023/10/25 00:04:29;;;;;;;0.00;0.00;;;;;;;14.57;100.00;97711.66;5093677;28;20020;-48
2023/10/25 00:06:55;;;;;;;1.55;1.25;;;;;;;14.51;100.00;97707.38;5093652;28;20050;-48
2023/10/25 00:09:20;;;;;;;0.20;0.20;;;;;;;14.45;100.00;97705.72;5092324;28;20060;-48
2023/10/25 00:11:46;;;;;;;0.00;0.00;;;;;;;14.26;100.00;97713.16;5091934;28;20048;-48
2023/10/25 00:14:12;;;;;;;0.10;0.10;;;;;;;14.14;100.00;97721.22;5093536;28;20028;-48
2023/10/25 00:16:37;;;;;;;0.00;0.00;;;;;;;14.01;100.00;97707.63;5092205;28;20442;-48
2023/10/25 00:19:03;;;;;;;0.00;0.00;;;;;;;14.02;100.00;97699.44;5093370;28;20032;-48
2023/10/25 00:21:29;;;;;;;0.00;0.00;;;;;;;14.09;100.00;97692.16;5093402;28;20157;-48
2023/10/25 00:23:54;;;;;;;0.00;0.00;;;;;;;14.03;100.00;97693.16;5093645;28;20024;-48
2023/10/25 00:26:20;;;;;;;0.00;0.00;;;;;;;13.89;100.00;97678.75;5093262;28;20512;-48
2023/10/25 00:28:46;;;;;;;0.10;0.10;;;;;;;14.01;100.00;97682.03;5093156;28;20056;-48
2023/10/25 00:31:12;;;;;;;0.00;0.00;;;;;;;14.02;100.00;97683.63;5092549;28;20517;-48
2023/10/25 00:33:37;;;;;;;0.10;0.10;;;;;;;14.14;100.00;97688.75;5091843;28;20080;-48
2023/10/25 00:36:03;;;;;;;0.00;0.00;;;;;;;13.94;100.00;97691.97;5091807;28;20055;-48
2023/10/25 00:38:29;;;;;;;0.00;0.00;;;;;;;13.50;100.00;97695.41;5091718;28;20115;-48
2023/10/25 00:40:55;;;;;;;0.30;0.30;;;;;;;13.18;100.00;97688.09;5091701;28;20178;-48
2023/10/25 00:43:21;;;;;;;0.00;0.00;;;;;;;13.04;100.00;97686.00;5093038;28;20020;-48
2023/10/25 00:46:12;;;;;;;0.00;0.00;;;;;;;13.25;100.00;97682.63;5093147;28;20028;-48
2023/10/25 00:48:46;;;;;;;0.00;0.00;;;;;;;13.27;100.00;97677.91;5091553;28;20016;-48
2023/10/25 00:51:19;;;;;;;0.22;0.20;;;;;;;13.43;100.00;97678.16;5092744;28;20021;-48
2023/10/25 00:53:53;;;;;;;0.63;0.63;;;;;;;13.50;100.00;97669.06;5092781;28;20566;-48
2023/10/25 00:56:24;;;;;;;0.00;0.00;;;;;;;13.26;100.00;97676.34;5091428;28;20031;-48
2023/10/25 00:58:53;;;;;;;0.00;0.00;;;;;;;13.08;100.00;97672.13;5091440;28;20028;-48
2023/10/25 01:01:21;;;;;;;0.05;0.05;;;;;;;12.99;100.00;97679.63;5092575;28;20393;-48
2023/10/25 01:03:47;;;;;;;0.00;0.00;;;;;;;13.02;100.00;97674.91;5091372;28;20046;-48
2023/10/25 01:06:13;;;;;;;1.92;1.30;;;;;;;13.10;100.00;97674.50;5092402;28;20020;-48
2023/10/25 01:08:40;;;;;;;0.00;0.00;;;;;;;13.09;100.00;97660.53;5091376;28;20020;-48
2023/10/25 01:11:06;;;;;;;0.00;0.00;;;;;;;13.02;100.00;97659.94;5090826;28;20131;-48
2023/10/25 01:13:31;;;;;;;0.00;0.00;;;;;;;12.97;100.00;97654.56;5074325;28;20139;-48
2023/10/25 01:15:57;;;;;;;0.00;0.00;;;;;;;12.92;100.00;97639.50;5091135;28;20058;-48
2023/10/25 01:18:23;;;;;;;0.00;0.00;;;;;;;12.86;100.00;97631.75;5091173;28;20038;-48
2023/10/25 01:20:49;;;;;;;0.17;0.17;;;;;;;12.81;100.00;97637.75;5091005;28;20020;-48
2023/10/25 01:23:15;;;;;;;0.00;0.00;;;;;;;12.84;100.00;97634.66;5090950;28;20020;-48
2023/10/25 01:25:44;;;;;;;0.00;0.00;;;;;;;12.89;100.00;97632.06;5090914;28;20070;-48
2023/10/25 01:28:10;;;;;;;0.00;0.00;;;;;;;12.95;100.00;97638.22;5092115;28;20485;-48
2023/10/25 01:30:36;;;;;;;0.40;0.40;;;;;;;13.05;100.00;97630.47;5092087;28;20452;-48
2023/10/25 01:33:02;;;;;;;0.00;0.00;;;;;;;13.12;100.00;97631.09;5092069;28;20059;-48
2023/10/25 01:35:28;;;;;;;0.00;0.00;;;;;;;13.20;100.00;97635.16;5092091;28;20054;-48
2023/10/25 01:37:54;;;;;;;0.00;0.00;;;;;;;13.30;100.00;97631.88;5091046;28;20034;-48
2023/10/25 01:40:20;;;;;;;0.08;0.08;;;;;;;13.33;100.00;97629.53;5091938;28;20028;-48
2023/10/25 01:42:46;;;;;;;0.00;0.00;;;;;;;13.37;100.00;97620.09;5089839;28;20020;-48
2023/10/25 01:45:11;;;;;;;0.00;0.00;;;;;;;13.52;100.00;97621.34;5092255;28;20052;-48
2023/10/25 01:47:41;;;;;;;0.00;0.00;;;;;;;13.57;100.00;97624.84;5090653;28;20051;-48
2023/10/25 01:50:10;;;;;;;0.10;0.10;;;;;;;13.68;100.00;97614.41;5090563;28;20036;-48
2023/10/25 01:52:35;;;;;;;0.00;0.00;;;;;;;13.79;100.00;97605.56;5090529;28;20398;-48
2023/10/25 01:55:02;;;;;;;0.05;0.05;;;;;;;13.83;100.00;97609.31;5090694;28;20027;-49
2023/10/25 01:57:27;;;;;;;0.10;0.10;;;;;;;13.93;100.00;97606.00;5091823;28;20032;-48
2023/10/25 01:59:53;;;;;;;0.00;0.00;;;;;;;13.97;100.00;97599.16;5091878;28;20074;-48
2023/10/25 02:02:19;;;;;;;0.00;0.00;;;;;;;13.96;100.00;97595.75;5091835;28;20020;-48
2023/10/25 02:04:44;;;;;;;0.05;0.05;;;;;;;14.09;100.00;97586.63;5090482;28;20028;-48
2023/10/25 02:07:10;;;;;;;0.00;0.00;;;;;;;14.11;100.00;97581.88;5091696;28;20077;-48
2023/10/25 02:09:36;;;;;;;0.00;0.00;;;;;;;14.17;100.00;97586.16;5090521;28;20024;-48
2023/10/25 02:12:02;;;;;;;0.00;0.00;;;;;;;14.19;100.00;97573.50;5090150;28;20067;-48
2023/10/25 02:14:28;;;;;;;0.00;0.00;;;;;;;14.17;100.00;97575.59;5090573;28;20024;-48
2023/10/25 02:16:54;;;;;;;0.00;0.00;;;;;;;14.31;100.00;97572.56;5091795;28;20035;-49
2023/10/25 02:19:19;;;;;;;0.00;0.00;;;;;;;14.26;100.00;97575.94;5091723;28;20074;-49
2023/10/25 02:21:45;;;;;;;0.00;0.00;;;;;;;14.24;100.00;97585.16;5091712;28;20024;-48
2023/10/25 02:24:14;;;;;;;0.47;0.47;;;;;;;14.26;100.00;97581.22;5091612;28;20020;-49
2023/10/25 02:26:41;;;;;;;0.00;0.00;;;;;;;14.28;100.00;97578.34;5091889;28;20038;-48
2023/10/25 02:29:06;;;;;;;0.00;0.00;;;;;;;14.46;100.00;97579.78;5091562;28;20512;-49
2023/10/25 02:31:33;;;;;;;0.10;0.10;;;;;;;14.54;100.00;97566.13;5091536;28;20024;-48
2023/10/25 02:33:59;;;;;;;0.00;0.00;;;;;;;14.58;100.00;97569.88;5090230;28;20024;-48
2023/10/25 02:36:25;;;;;;;0.22;0.22;;;;;;;14.52;100.00;97561.09;5090138;28;20397;-48
2023/10/25 02:38:51;;;;;;;0.10;0.10;;;;;;;14.39;100.00;97572.88;5091470;28;20044;-48
2023/10/25 02:41:16;;;;;;;0.00;0.00;;;;;;;14.35;100.00;97563.88;5091459;28;20161;-48
2023/10/25 02:43:43;;;;;;;0.10;0.10;;;;;;;14.28;100.00;97565.13;5091441;28;20039;-48
2023/10/25 02:46:09;;;;;;;0.00;0.00;;;;;;;14.23;100.00;97554.56;5090319;28;20024;-49
2023/10/25 02:48:41;;;;;;;0.00;0.00;;;;;;;14.19;100.00;97552.41;5090075;28;20024;-48
2023/10/25 02:51:07;;;;;;;0.00;0.00;;;;;;;14.18;100.00;97550.84;5091291;28;20035;-48
2023/10/25 02:53:32;;;;;;;0.00;0.00;;;;;;;14.24;100.00;97559.56;5093370;28;20016;-48
2023/10/25 02:56:06;;;;;;;0.00;0.00;;;;;;;14.18;100.00;97545.56;5093749;28;20024;-48
2023/10/25 02:58:32;;;;;;;0.25;0.25;;;;;;;14.11;100.00;97550.22;5093771;28;20089;-48
2023/10/25 03:00:59;;;;;;;0.00;0.00;;;;;;;14.08;100.00;97542.00;5093674;28;20039;-49
2023/10/25 03:03:27;;;;;;;0.00;0.00;;;;;;;14.04;100.00;97546.19;5093605;28;20508;-48
2023/10/25 03:05:54;;;;;;;0.00;0.00;;;;;;;13.99;100.00;97550.38;5093643;28;20433;-48
2023/10/25 03:08:20;;;;;;;0.00;0.00;;;;;;;14.01;100.00;97544.06;5093535;28;20123;-48
2023/10/25 03:10:46;;;;;;;0.00;0.00;;;;;;;13.97;100.00;97551.69;5094442;28;20054;-49
2023/10/25 03:13:12;;;;;;;0.00;0.00;;;;;;;14.12;100.00;97545.75;5093466;28;20036;-48
2023/10/25 03:15:38;;;;;;;0.00;0.00;;;;;;;14.24;100.00;97551.63;5093401;28;20107;-48
2023/10/25 03:18:04;;;;;;;0.00;0.00;;;;;;;14.42;100.00;97550.47;5094650;28;20034;-48
2023/10/25 03:20:30;;;;;;;0.20;0.20;;;;;;;14.63;100.00;97550.63;5093257;28;20023;-48
2023/10/25 03:22:58;;;;;;;0.00;0.00;;;;;;;14.92;100.00;97548.44;5094577;28;20066;-48
2023/10/25 03:25:24;;;;;;;0.00;0.00;;;;;;;15.21;100.00;97551.47;5094455;28;20042;-49
2023/10/25 03:27:50;;;;;;;0.00;0.00;;;;;;;15.65;100.00;97551.09;5094494;28;20020;-48
2023/10/25 03:30:16;;;;;;;0.00;0.00;;;;;;;15.97;100.00;97553.56;5093075;28;20069;-48
2023/10/25 03:32:43;;;;;;;0.10;0.10;;;;;;;16.10;100.00;97556.75;5094300;28;20158;-48
2023/10/25 03:35:09;;;;;;;0.00;0.00;;;;;;;15.95;100.00;97550.38;5094303;28;20016;-48
2023/10/25 03:37:39;;;;;;;0.00;0.00;;;;;;;15.92;100.00;97539.53;5094310;28;20032;-48
2023/10/25 03:40:10;;;;;;;0.00;0.00;;;;;;;15.79;100.00;97538.19;5094214;28;20016;-48
2023/10/25 03:42:36;;;;;;;0.00;0.00;;;;;;;15.56;100.00;97534.94;5094252;28;20035;-48
2023/10/25 03:45:02;;;;;;;0.00;0.00;;;;;;;15.81;100.00;97533.44;5094035;28;20020;-48
2023/10/25 03:47:28;;;;;;;0.00;0.00;;;;;;;16.01;100.00;97537.94;5076096;28;20028;-48
2023/10/25 03:49:54;;;;;;;0.20;0.20;;;;;;;15.94;100.00;97526.84;5093951;28;20027;-49
2023/10/25 03:52:20;;;;;;;0.00;0.00;;;;;;;15.62;100.00;97524.38;5094133;28;20048;-48
2023/10/25 03:54:46;;;;;;;0.00;0.00;;;;;;;15.23;100.00;97522.13;5093976;28;20032;-48
2023/10/25 03:57:11;;;;;;;0.15;0.15;;;;;;;15.17;100.00;97518.69;5093830;28;20478;-48
2023/10/25 03:59:37;;;;;;;0.00;0.00;;;;;;;15.43;100.00;97516.13;5092574;28;20037;-48
2023/10/25 04:02:03;;;;;;;0.00;0.00;;;;;;;15.64;100.00;97520.41;5092782;28;20027;-48
2023/10/25 04:04:29;;;;;;;0.00;0.00;;;;;;;15.44;100.00;97512.44;5092742;28;20031;-48
2023/10/25 04:06:56;;;;;;;0.00;0.00;;;;;;;15.67;100.00;97517.22;5092425;28;20443;-49
2023/10/25 04:09:21;;;;;;;0.00;0.00;;;;;;;15.62;100.00;97505.88;5093674;28;20016;-48
2023/10/25 04:11:47;;;;;;;0.00;0.00;;;;;;;15.60;100.00;97505.34;5075192;28;20117;-48
2023/10/25 04:14:13;;;;;;;0.00;0.00;;;;;;;15.65;100.00;97515.91;5093598;28;20016;-48
2023/10/25 04:16:38;;;;;;;0.00;0.00;;;;;;;15.61;100.00;97504.28;5075312;28;20024;-48
2023/10/25 04:19:04;;;;;;;0.00;0.00;;;;;;;15.49;100.00;97494.75;5093406;28;20151;-48
2023/10/25 04:21:30;;;;;;;0.00;0.00;;;;;;;14.96;100.00;97486.91;5092170;28;20069;-48
2023/10/25 04:23:55;;;;;;;0.00;0.00;;;;;;;14.70;100.00;97482.56;5092061;28;20032;-48
2023/10/25 04:26:22;;;;;;;0.00;0.00;;;;;;;14.81;100.00;97481.56;5092319;28;20020;-48
2023/10/25 04:28:47;;;;;;;0.38;0.38;;;;;;;15.06;100.00;97485.34;5093302;28;20092;-48
2023/10/25 04:31:13;;;;;;;0.00;0.00;;;;;;;15.00;100.00;97484.53;5093168;28;20505;-48
2023/10/25 04:33:39;;;;;;;0.00;0.00;;;;;;;15.34;100.00;97486.78;5093193;28;20020;-48
2023/10/25 04:36:06;;;;;;;0.43;0.43;;;;;;;15.36;100.00;97487.31;5093309;28;20066;-48
2023/10/25 04:38:32;;;;;;;0.00;0.00;;;;;;;15.43;100.00;97494.97;5093101;28;20055;-48
2023/10/25 04:40:58;;;;;;;0.00;0.00;;;;;;;15.48;100.00;97493.16;5093010;28;20551;-48
2023/10/25 04:43:24;;;;;;;0.00;0.00;;;;;;;15.67;100.00;97497.94;5093065;28;20024;-48
2023/10/25 04:45:53;;;;;;;3.00;0.40;;;;;;;16.03;100.00;97495.34;5092939;28;20028;-48
2023/10/25 04:48:19;;;;;;;0.00;0.00;;;;;;;16.25;100.00;97500.38;5058908;28;20502;-48
2023/10/25 04:50:44;;;;;;;0.00;0.00;;;;;;;16.47;100.00;97518.63;5091544;28;20029;-48
2023/10/25 04:53:10;;;;;;;0.10;0.10;;;;;;;16.24;100.00;97522.59;5091515;28;20107;-48
2023/10/25 04:55:36;;;;;;;0.00;0.00;;;;;;;15.55;100.00;97529.91;5091480;28;20052;-48
2023/10/25 04:58:03;;;;;;;0.00;0.00;;;;;;;15.17;100.00;97534.53;5091569;28;20440;-48
2023/10/25 05:00:29;;;;;;;0.35;0.30;;;;;;;15.34;100.00;97542.28;5092657;28;20553;-48
2023/10/25 05:02:56;;;;;;;5.05;1.63;;;;;;;15.50;100.00;97535.19;5091304;28;20366;-48
2023/10/25 05:05:22;;;;;;;4.68;1.83;;;;;;;15.56;100.00;97532.28;5092621;28;20031;-48
2023/10/25 05:07:48;;;;;;;6.32;1.50;;;;;;;15.49;100.00;97525.66;5091333;28;20122;-48
2023/10/25 05:10:14;;;;;;;4.40;2.05;;;;;;;15.33;100.00;97525.63;5092511;28;20047;-48
2023/10/25 05:12:43;;;;;;;5.03;2.90;;;;;;;15.34;100.00;97511.34;5092209;28;20071;-48
2023/10/25 05:15:14;;;;;;;4.95;3.58;;;;;;;15.33;100.00;97498.38;5090994;28;20051;-48
2023/10/25 05:17:41;;;;;;;2.00;1.30;;;;;;;14.97;100.00;97504.34;5091111;28;20040;-48
2023/10/25 05:20:08;;;;;;;2.88;1.55;;;;;;;14.81;100.00;97496.59;5090991;28;20024;-48
2023/10/25 05:22:36;;;;;;;5.25;1.50;;;;;;;14.74;100.00;97494.19;5092237;28;20061;-48
2023/10/25 05:25:03;;;;;;;4.40;1.55;;;;;;;14.60;100.00;97493.84;5090931;28;20051;-49
2023/10/25 05:27:29;;;;;;;3.75;1.75;;;;;;;14.93;100.00;97492.72;5092293;28;20069;-48
2023/10/25 05:29:59;;;;;;;3.47;1.85;;;;;;;15.36;100.00;97489.94;5092076;28;20039;-48
2023/10/25 05:32:29;;;;;;;7.93;2.90;;;;;;;15.63;100.00;97489.72;5092068;28;20114;-48
2023/10/25 05:34:56;;;;;;;13.95;12.80;;;;;;;15.52;100.00;97483.63;5092070;28;20028;-48
2023/10/25 05:37:22;;;;;;;6.00;2.45;;;;;;;14.93;100.00;97490.06;5092082;28;20482;-48
2023/10/25 05:39:48;;;;;;;5.55;3.42;;;;;;;14.48;100.00;97490.59;5092062;28;20024;-48
2023/10/25 05:42:19;;;;;;;2.90;1.75;;;;;;;14.41;100.00;97493.44;5090775;28;20033;-49
2023/10/25 05:44:45;;;;;;;4.05;2.20;;;;;;;14.34;100.00;97488.38;5092022;28;20066;-48
2023/10/25 05:47:11;;;;;;;3.83;1.63;;;;;;;14.47;100.00;97479.25;5091883;28;20111;-48
2023/10/25 05:49:37;;;;;;;5.82;1.73;;;;;;;14.34;100.00;97474.38;5091903;28;20431;-48
2023/10/25 05:52:05;;;;;;;4.25;1.45;;;;;;;14.29;100.00;97477.00;5073656;28;20031;-48
2023/10/25 05:54:31;;;;;;;5.78;1.65;;;;;;;14.12;100.00;97472.66;5091866;28;20021;-49
2023/10/25 05:56:57;;;;;;;1.85;1.13;;;;;;;13.90;100.00;97469.31;5091819;28;20024;-49
2023/10/25 05:59:23;;;;;;;3.53;1.10;;;;;;;13.74;100.00;97461.31;5090550;28;20046;-48
2023/10/25 06:01:51;;;;;;;1.05;0.90;;;;;;;13.71;100.00;97455.72;5092101;28;20036;-48
2023/10/25 06:04:19;;;;;;;1.80;0.80;;;;;;;13.71;100.00;97453.09;5090497;28;20027;-48
2023/10/25 06:06:45;;;;;;;1.45;1.00;;;;;;;13.67;100.00;97458.06;5091777;28;20020;-48
2023/10/25 06:09:13;;;;;;;1.90;1.00;;;;;;;13.69;100.00;97453.34;5091809;28;20026;-48
2023/10/25 06:11:41;;;;;;;2.70;0.85;;;;;;;13.71;100.00;97453.88;5091423;28;20036;-48
2023/10/25 06:14:08;;;;;;;3.03;1.00;;;;;;;13.69;100.00;97449.91;5090408;28;20401;-48
2023/10/25 06:16:34;;;;;;;1.10;0.75;;;;;;;13.76;100.00;97453.13;5090342;28;20068;-48
2023/10/25 06:19:00;;;;;;;1.42;1.23;;;;;;;13.70;100.00;97448.84;5091669;28;20058;-48
2023/10/25 06:21:26;;;;;;;1.88;0.70;;;;;;;13.74;100.00;97461.31;5091896;28;20099;-48
2023/10/25 06:23:52;;;;;;;2.42;0.85;;;;;;;13.75;100.00;97452.34;5091621;28;20561;-48
2023/10/25 06:26:18;;;;;;;2.58;0.93;;;;;;;13.81;100.00;97447.13;5090248;28;20066;-48
2023/10/25 06:28:44;;;;;;;2.65;0.90;;;;;;;13.88;100.00;97460.88;5094068;28;20103;-48
2023/10/25 06:31:11;;;;;;;1.98;0.93;;;;;;;13.82;100.00;97460.03;5077176;28;20119;-48
2023/10/25 06:33:37;;;;;;;1.25;0.70;;;;;;;13.67;100.00;97452.78;5095540;28;20027;-48
2023/10/25 06:36:03;;;;;;;2.90;1.17;;;;;;;13.59;100.00;97435.59;5095484;28;20486;-48
2023/10/25 06:38:29;;;;;;;1.20;0.93;;;;;;;13.57;100.00;97439.53;5095502;28;20066;-48
2023/10/25 06:40:55;;;;;;;2.15;0.80;;;;;;;13.68;100.00;97441.22;5095328;28;20047;-48
2023/10/25 06:43:21;;;;;;;4.30;1.20;;;;;;;13.81;100.00;97440.00;5095317;28;20050;-48
2023/10/25 06:45:47;;;;;;;1.15;0.93;;;;;;;13.93;100.00;97437.97;5095323;28;20020;-48
2023/10/25 06:48:13;;;;;;;1.52;0.85;;;;;;;14.05;100.00;97444.91;5077048;28;20028;-48
2023/10/25 06:50:39;;;;;;;2.70;0.70;;;;;;;14.14;100.00;97454.72;5093892;28;20106;-48
2023/10/25 06:53:05;;;;;;;2.83;0.80;;;;;;;14.28;100.00;97449.81;5093871;28;20036;-48
2023/10/25 06:55:31;;;;;;;1.42;0.65;;;;;;;14.33;100.00;97449.06;5095293;28;20122;-48
2023/10/25 06:57:57;;;;;;;1.23;0.77;;;;;;;14.35;100.00;97423.22;5095081;28;20587;-48
2023/10/25 07:00:23;;;;;;;1.33;0.75;;;;;;;14.39;100.00;97424.28;5095069;28;20562;-48
2023/10/25 07:02:53;;;;;;;3.05;1.08;;;;;;;14.42;100.00;97429.03;5093648;28;20097;-48
2023/10/25 07:05:23;;;;;;;4.97;1.10;;;;;;;14.41;100.00;97437.22;5094856;28;20061;-48
2023/10/25 07:07:51;;;;;;;1.73;1.08;;;;;;;14.47;100.00;97434.34;5094929;28;20035;-48
2023/10/25 07:10:18;;;;;;;4.97;1.10;;;;;;;14.48;100.00;97448.34;5093544;28;20112;-48
2023/10/25 07:12:45;;;;;;;5.53;1.40;;;;;;;14.57;100.00;97447.63;5094574;28;20071;-48
2023/10/25 07:15:11;;;;;;;4.57;1.60;;;;;;;14.62;100.00;97467.97;5094753;28;20031;-48
2023/10/25 07:17:38;;;;;;;2.08;1.67;;;;;;;14.77;100.00;97464.66;5094949;28;20020;-48
2023/10/25 07:20:05;;;;;;;6.05;1.88;;;;;;;14.75;100.00;97469.38;5093315;28;20032;-48
2023/10/25 07:22:31;;;;;;;2.35;1.00;;;;;;;14.80;100.00;97463.31;5094612;28;20024;-48
2023/10/25 07:24:57;;;;;;;1.90;1.17;;;;;;;14.87;100.00;97458.59;5094563;28;20027;-48
2023/10/25 07:27:23;;;;;;;4.10;1.73;;;;;;;14.90;100.00;97456.22;5093170;28;20519;-48
2023/10/25 07:29:49;;;;;;;2.63;1.55;;;;;;;15.05;100.00;97452.03;5093116;28;20028;-48
2023/10/25 07:32:15;;;;;;;4.18;1.00;;;;;;;15.18;100.00;97459.50;5093065;28;20039;-48
2023/10/25 07:34:42;;;;;;;4.40;1.17;;;;;;;15.38;100.00;97450.81;5094318;28;20020;-48
2023/10/25 07:37:07;;;;;;;1.85;1.20;;;;;;;15.43;100.00;97457.97;5094319;28;20035;-48
2023/10/25 07:39:33;;;;;;;5.82;1.52;;;;;;;15.56;100.00;97462.75;5094271;28;20436;-48
2023/10/25 07:42:01;;;;;;;1.98;1.35;;;;;;;15.99;100.00;97463.31;5092810;28;20020;-48
2023/10/25 07:44:28;;;;;;;2.10;1.30;;;;;;;16.17;100.00;97457.47;5094199;28;20028;-48
2023/10/25 07:46:53;;;;;;;1.92;1.05;;;;;;;16.28;100.00;97454.81;5094142;28;20375;-48
2023/10/25 07:49:19;;;;;;;3.95;1.38;;;;;;;16.17;100.00;97464.63;5094099;28;20030;-48
2023/10/25 07:51:44;;;;;;;12.48;1.20;;;;;;;16.17;100.00;97457.47;5092769;28;20497;-48
2023/10/25 07:54:10;;;;;;;2.28;0.98;;;;;;;16.14;100.00;97463.31;5092789;28;20401;-48
2023/10/25 07:56:36;;;;;;;4.88;1.35;;;;;;;16.17;100.00;97475.22;5092644;28;20115;-48
2023/10/25 07:59:02;;;;;;;1.55;0.70;;;;;;;16.20;100.00;97476.53;5093848;28;20099;-48
2023/10/25 08:01:28;;;;;;;3.75;0.65;;;;;;;16.26;100.00;97476.28;5094107;28;20104;-48
2023/10/25 08:03:54;;;;;;;3.70;1.10;;;;;;;16.23;100.00;97468.06;5093767;28;20470;-48
2023/10/25 08:06:20;;;;;;;4.90;0.82;;;;;;;16.15;100.00;97483.44;5093742;28;20081;-48
2023/10/25 08:08:48;;;;;;;1.08;0.45;;;;;;;16.09;100.00;97486.34;5093750;28;20016;-48
2023/10/25 08:11:15;;;;;;;2.15;0.80;;;;;;;16.08;100.00;97496.16;5093287;28;20044;-49
2023/10/25 08:13:42;;;;;;;8.27;2.55;;;;;;;16.09;100.00;97505.66;5093635;28;20017;-48
2023/10/25 08:16:08;;;;;;;3.13;0.50;;;;;;;16.08;100.00;97482.91;5093528;28;20031;-48
2023/10/25 08:18:35;;;;;;;2.53;0.60;;;;;;;16.12;100.00;97494.56;5093558;28;20016;-48
2023/10/25 08:21:02;;;;;;;2.22;0.55;;;;;;;16.08;96.98;97496.16;5093457;28;20053;-48
2023/10/25 08:23:28;;;;;;;9.73;1.38;;;;;;;16.20;100.00;97476.53;5093410;28;20020;-48
2023/10/25 08:25:59;;;;;;;3.00;0.52;;;;;;;16.16;97.45;97492.97;5091994;28;20078;-48
2023/10/25 08:28:25;;;;;;;5.28;0.65;;;;;;;16.25;100.00;97489.78;5093611;28;20032;-48
2023/10/25 08:30:51;;;;;;;1.35;0.60;;;;;;;16.17;95.05;97481.31;5093484;28;20374;-48
2023/10/25 08:33:16;;;;;;;1.95;0.80;;;;;;;16.12;96.48;97480.53;5093171;28;20028;-48
2023/10/25 08:35:43;;;;;;;1.10;0.70;;;;;;;16.09;96.13;97455.38;5093104;28;20024;-48
2023/10/25 08:38:09;;;;;;;1.17;0.52;;;;;;;16.10;94.23;97462.28;5093188;28;20027;-48
2023/10/25 08:40:39;;;;;;;2.75;0.98;;;;;;;16.17;98.89;97446.91;5091775;28;20028;-48
2023/10/25 08:43:05;;;;;;;2.55;0.70;;;;;;;16.16;94.19;97469.16;5093035;28;20047;-48
2023/10/25 08:45:37;;;;;;;0.90;0.73;;;;;;;16.24;96.24;97461.72;5091655;28;20028;-48
2023/10/25 08:48:04;;;;;;;2.30;1.05;;;;;;;16.34;90.37;97469.66;5092894;28;20517;-48
2023/10/25 08:50:33;;;;;;;2.20;0.68;;;;;;;16.40;93.09;97454.53;5092262;28;20035;-48
2023/10/25 08:52:59;;;;;;;1.52;0.77;;;;;;;16.40;88.87;97463.28;5091390;28;20020;-48
2023/10/25 08:55:25;;;;;;;0.65;0.52;;;;;;;16.34;90.70;97459.06;5092776;28;20031;-48
2023/10/25 08:57:57;;;;;;;2.38;0.60;;;;;;;16.35;89.96;97442.09;5092797;28;20394;-48
2023/10/25 09:00:28;;;;;;;1.77;0.60;;;;;;;16.36;87.38;97449.78;5075451;28;20039;-48
2023/10/25 09:02:54;;;;;;;2.90;0.50;;;;;;;16.38;88.01;97450.31;5092644;28;20032;-48
2023/10/25 09:05:20;;;;;;;1.02;0.68;;;;;;;16.39;91.65;97445.81;5091308;28;20028;-48
2023/10/25 09:07:45;;;;;;;2.00;0.70;;;;;;;16.37;89.65;97451.38;5091223;28;20024;-48
2023/10/25 09:10:15;;;;;;;1.63;0.85;;;;;;;16.44;86.70;97461.69;5092757;28;20056;-48
2023/10/25 09:12:42;;;;;;;5.68;1.30;;;;;;;16.51;88.31;97445.50;5092249;28;20044;-48
2023/10/25 09:15:08;;;;;;;2.05;0.90;;;;;;;16.59;94.91;97463.50;5091140;28;20078;-48
2023/10/25 09:17:34;;;;;;;2.00;0.82;;;;;;;16.64;91.73;97460.03;5074349;28;20567;-48
2023/10/25 09:20:00;;;;;;;2.03;0.65;;;;;;;16.72;89.25;97467.44;5091039;28;20027;-48
2023/10/25 09:22:28;;;;;;;3.38;0.55;;;;;;;16.90;92.06;97469.53;5092381;28;20402;-48
2023/10/25 09:24:59;;;;;;;1.13;0.73;;;;;;;17.08;89.39;97470.78;5090977;28;20116;-48
2023/10/25 09:27:25;;;;;;;0.32;0.30;;;;;;;17.28;85.90;97477.03;5092316;28;20489;-48
2023/10/25 09:29:52;;;;;;;0.70;0.43;;;;;;;17.90;85.67;97466.84;5090913;28;20520;-48
2023/10/25 09:32:20;;;;;;;4.53;0.55;;;;;;;18.45;78.65;97467.44;5092121;28;20020;-48
2023/10/25 09:34:49;;;;;;;2.63;0.77;;;;;;;18.23;82.08;97467.91;5092126;28;20024;-49
2023/10/25 09:37:16;;;;;;;3.08;1.52;;;;;;;18.47;80.70;97467.94;5090777;28;20499;-47
2023/10/25 09:39:42;;;;;;;4.45;1.20;;;;;;;18.75;81.46;97463.66;5074024;28;20463;-46
2023/10/25 09:42:15;;;;;;;1.40;1.10;;;;;;;19.07;78.64;97472.06;5092080;28;20024;-46
2023/10/25 09:44:45;;;;;;;2.83;0.43;;;;;;;18.98;73.57;97479.88;5092128;28;20016;-46
2023/10/25 09:47:11;;;;;;;1.80;0.63;;;;;;;19.05;78.70;97472.34;5092285;28;20040;-46
2023/10/25 09:49:43;;;;;;;0.73;0.40;;;;;;;18.91;74.55;97468.81;5092040;28;20069;-46
2023/10/25 09:52:19;;;;;;;0.60;0.57;;;;;;;18.93;83.48;97475.44;5090567;28;20024;-46
2023/10/25 09:54:51;;;;;;;1.95;0.77;;;;;;;18.97;75.71;97465.00;5091965;28;20490;-46
2023/10/25 09:57:21;;;;;;;3.22;0.75;;;;;;;18.96;74.20;97477.50;5091905;28;20103;-46
2023/10/25 09:59:48;;;;;;;1.00;0.75;;;;;;;18.80;70.13;97470.78;5092163;28;20119;-46
2023/10/25 10:02:39;;;;;;;0.70;0.47;;;;;;;18.70;72.88;97462.91;5092122;28;20024;-46
2023/10/25 10:05:25;;;;;;;0.82;0.30;;;;;;;19.10;73.76;97471.50;5095710;28;20505;-46
2023/10/25 10:07:59;;;;;;;5.35;0.85;;;;;;;20.21;72.06;97459.50;5096042;28;20032;-46
2023/10/25 10:10:39;;;;;;;2.28;0.55;;;;;;;21.22;61.23;97460.50;5094698;28;20032;-46
2023/10/25 10:13:18;;;;;;;1.42;0.43;;;;;;;21.65;68.12;97433.41;5095824;28;20048;-46
2023/10/25 10:16:01;;;;;;;3.83;1.23;;;;;;;21.74;59.26;97431.59;5094505;28;20020;-46
2023/10/25 10:18:33;;;;;;;1.60;0.65;;;;;;;21.23;58.72;97446.06;5094537;28;20020;-46
2023/10/25 10:21:05;;;;;;;3.45;1.02;;;;;;;21.51;59.55;97438.81;5094416;28;20383;-46
2023/10/25 10:23:37;;;;;;;0.65;0.50;;;;;;;22.36;57.41;97451.47;5095738;28;20073;-46
2023/10/25 10:26:04;;;;;;;1.05;0.50;;;;;;;22.56;55.51;97419.91;5094343;28;20526;-46
2023/10/25 10:28:43;;;;;;;1.95;0.40;;;;;;;22.91;53.05;97448.34;5095600;28;20035;-46
2023/10/25 10:31:10;;;;;;;1.55;0.43;;;;;;;23.57;51.26;97433.31;5095329;28;20074;-46
2023/10/25 10:33:49;;;;;;;2.08;0.35;;;;;;;23.65;52.03;97422.59;5095532;28;20024;-46
2023/10/25 10:36:31;;;;;;;0.77;0.40;;;;;;;23.57;49.18;97417.25;5094157;28;20110;-46
2023/10/25 10:39:14;;;;;;;2.50;0.50;;;;;;;24.35;54.17;97433.19;5095411;28;20081;-46
2023/10/25 10:41:44;;;;;;;3.63;0.52;;;;;;;24.21;46.98;97417.31;5095404;28;20016;-46
2023/10/25 10:44:13;;;;;;;1.83;0.45;;;;;;;23.37;46.78;97411.44;5094124;28;20102;-46
2023/10/25 10:47:07;;;;;;;2.47;0.60;;;;;;;23.70;52.28;97397.53;5094137;28;20020;-46
2023/10/25 10:49:35;;;;;;;0.52;0.30;;;;;;;24.55;43.52;97382.63;5093089;28;20044;-46
2023/10/25 10:52:02;;;;;;;2.63;0.40;;;;;;;24.34;43.38;97407.47;5095056;28;20050;-46
2023/10/25 10:54:28;;;;;;;0.95;0.40;;;;;;;23.02;45.44;97421.31;5095131;28;20425;-46
2023/10/25 10:56:54;;;;;;;1.13;0.40;;;;;;;21.93;49.44;97426.06;5095056;28;20028;-47
2023/10/25 10:59:20;;;;;;;2.50;0.50;;;;;;;21.18;51.85;97405.38;5095025;28;20024;-46
2023/10/25 11:01:46;;;;;;;1.83;0.52;;;;;;;20.66;51.31;97408.31;5094965;28;20020;-46
2023/10/25 11:04:12;;;;;;;0.68;0.43;;;;;;;20.27;52.80;97410.34;5093927;28;20023;-46
2023/10/25 11:06:39;;;;;;;3.70;0.73;;;;;;;20.09;51.03;97409.34;5093575;28;20035;-46
2023/10/25 11:09:08;;;;;;;3.35;1.38;;;;;;;20.06;54.67;97415.28;5095142;28;20036;-46
2023/10/25 11:11:35;;;;;;;0.30;0.30;;;;;;;20.70;53.81;97406.63;5094435;28;20055;-46
2023/10/25 11:14:01;;;;;;;2.47;1.77;;;;;;;21.90;51.07;97391.16;5093047;28;20016;-46
2023/10/25 11:16:27;;;;;;;15.45;12.77;;;;;;;22.60;47.97;97400.28;5093681;28;20024;-46
2023/10/25 11:18:53;;;;;;;0.73;0.70;;;;;;;22.83;45.67;97403.63;5094669;28;20024;-46
2023/10/25 11:21:19;;;;;;;1.35;0.70;;;;;;;22.66;45.50;97407.06;5094587;28;20099;-46
2023/10/25 11:23:45;;;;;;;1.55;0.57;;;;;;;22.86;46.41;97389.63;5093507;28;20164;-47
2023/10/25 11:26:10;;;;;;;5.20;1.58;;;;;;;22.71;45.74;97388.19;5093211;28;20039;-46
2023/10/25 11:28:39;;;;;;;0.80;0.40;;;;;;;21.93;47.60;97347.78;5094571;28;20388;-46